AirNav   Air Wisconsin pilot careers
 
 355 users online  

39P Strom Field Airport
Morton, Washington, USA

GOING TO MORTON?


FAA INFORMATION EFFECTIVE 29 MARCH 2018

Location

FAA Identifier: 39P
Lat/Long: 46-33-01.2990N / 122-15-59.8530W
46-33.021650N / 122-15.997550W
46.5503608 / -122.2666258
(estimated)
Elevation: 941 ft. / 287 m (estimated)
Variation: 20E (1985)
Time zone: UTC -7 (UTC -8 during Standard Time)
Zip code: 98356

Airport Operations

Airport use: Open to the public
Activation date: 08/1964
Control tower: no
ARTCC: SEATTLE CENTER
FSS: SEATTLE FLIGHT SERVICE STATION
NOTAMs facility: SEA (NOTAM-D service available)
Attendance: UNATNDD
Wind indicator: lighted
Segmented circle: no
Lights: ACTVT MIRL RY 07/25 - CTAF.
Beacon: white-green (lighted land airport)
ACTVT ROTG BCN - CTAF.

Airport Communications

CTAF: 122.9

Nearby radio navigation aids

VOR radial/distance  VOR name  Freq  Var
OLMr115/36.3OLYMPIA VORTAC113.4019E
TCMr152/36.8MCCHORD VORTAC109.6015E

 
NDB name  Hdg/Dist  Freq  Var  ID
LACOMAS141/29.932816ELAC .-.. .- -.-.
KELSO031/35.725617ELSO .-.. ... ---
GRAYE143/38.621616EGRF --. .-. ..-.

Airport Services

Parking: tiedowns
Airframe service: NONE
Powerplant service: NONE

Runway Information

Runway 7/25

Dimensions: 1810 x 40 ft. / 552 x 12 m
Surface: asphalt, in fair condition
Runway edge lights: medium intensity
RUNWAY 7  RUNWAY 25
Latitude: 46-33.022283N46-33.021000N
Longitude: 122-16.213367W122-15.781733W
Traffic pattern: leftleft
Runway heading: 070 magnetic, 090 true250 magnetic, 270 true
Displaced threshold: 200 ft.no
Markings: basic, in fair conditionbasic, in fair condition
Obstructions: 65 ft. trees, 285 ft. from runway, 3 ft. right of centerline, 1:1 slope to clear
+3 FT ROAD AT 15 FT FM THLD.
41 ft. trees, 1318 ft. from runway, 40 ft. both sides of centerline, 27:1 slope to clear
RWY 25 +2 FT ROAD AT 15 FT FM THLD.

Airport Ownership and Management from official FAA records

Ownership: Publicly-owned
Owner: CITY OF MORTON
PO BOX 1089
MORTON, WA 98356
Phone 360-496-6881
Manager: KIETH COUNYER
PO BOX 1089, PO BOX 1089
MORTON, WA 98356
Phone (360) 496-5210
PUB. WKS. SUP.

Airport Operational Statistics

Aircraft based on the field: 6
Single engine airplanes: 4
Ultralights: 2
    
Aircraft operations: avg 22/day *
82% transient general aviation
18% local general aviation
<1% military
* for 12-month period ending 31 July 2015

Additional Remarks

TREES NEAR RWY.
TREES AND BRUSH IN PRIM SFC.
DEER AND ELK ON & INVOF RWY.

Instrument Procedures

There are no published instrument procedures at 39P.

Some nearby airports with instrument procedures:

KTDO - Ed Carlson Memorial Field - South Lewis Co Airport (23 nm W)
KCLS - Chehalis-Centralia Airport (30 nm W)
KPLU - Pierce County Airport - Thun Field (33 nm N)
KGRF - Gray Army Airfield (Joint Base Lewis-McChord) (34 nm N)
KOLM - Olympia Regional Airport (36 nm NW)
 
Loc | Ops | Rwys | IFR | FBO | Links
Com | Nav | Svcs | Stats | Notes

AirNav Hotels Sweepstakes
 
Area around 39P (Strom Field Airport)
 
Road maps at: MapQuest Bing Google
 
Aerial photo
WARNING: Photo may not be current or correct
Aerial photo of 39P (Strom Field Airport)
Photo taken 01-Sep-2012
looking west.

Do you have a better or more recent aerial photo of Strom Field Airport that you would like to share? If so, please send us your photo.

 
Sectional chart

 
Airport distance calculator
Flying to Strom Field Airport? Find the distance to fly.

From to 39P

Sunrise and sunset
Times for 24-Apr-2018
 Local
(UTC-7)
 Zulu
(UTC)
Morning civil twilight05:3412:34
Sunrise06:0713:07
Sunset20:0803:08
Evening civil twilight20:4003:40

Current date and time
Zulu (UTC)  24-Apr-2018 07:10:00
Local (UTC-7)  24-Apr-2018 00:10:00
 
METAR
KCLS 
30nm W 
240655Z AUTO 03004KT 10SM 09/04 A3021 RMK AO2
KPLU 
33nm N 
240655Z AUTO 00000KT 3SM BR CLR 07/06 A3021 RMK AO2
KGRF 
33nm N 
240656Z AUTO 00000KT 10SM CLR 07/05 A3020 RMK AO2 SLP231 T00740045 RVRNO $
KTCM 
35nm N 
240558Z AUTO 20003KT 10SM CLR 09/05 A3021 RMK AO2 SLP235 T00890047 10205 20076 53007 $
KOLM 
36nm NW 
240654Z AUTO A3021 RMK AO2 SLPNO PWINO FZRANO $
KKLS 
37nm SW 
240656Z AUTO 00000KT 10SM CLR 13/00 A3019 RMK AO2 SLP227 T01330000
TAF
KGRF 
33nm N 
240505Z 2405/2511 VRB06KT 9999 SKC QNH3016INS BECMG 2417/2418 34012KT 9999 FEW300 QNH3001INS TEMPO 2418/2421 34012G20KT BECMG 2502/2503 33006KT 9999 FEW250 QNH2999INS TX24/2500Z TN06/2411Z
KTCM 
35nm N 
240505Z 2405/2511 VRB06KT 9999 SKC QNH3016INS BECMG 2417/2418 03012KT 9999 FEW300 QNH3001INS TEMPO 2418/2421 03012G20KT BECMG 2502/2503 VRB06KT 9999 FEW250 QNH2999INS TX24/2500Z TN06/2411Z
KOLM 
36nm NW 
240526Z 2406/2506 35004KT P6SM SKC FM241800 03010KT P6SM SKC
NOTAMs
Click for the latest NOTAMs
NOTAMs are issued by the DoD/FAA and will open in a separate window not controlled by AirNav.

 

 
 

Would you like to see your business listed on this page?

 If your business provides an interesting product or service to pilots, flight crews, aircraft, or users of the Strom Field Airport, you should consider listing it here.  To start the listing process, click on the button below
 
Add a business
 

Other Pages about Strom Field Airport

Update a link
 
Copyright © AirNav, LLC. All rights reserved. Privacy Policy  Contact